sensor_id;sensor_type;location;lat;lon;timestamp;P1;durP1;ratioP1;P2;durP2;ratioP2
42668;SDS011;29384;42.028;21.388;2022-12-29T00:02:29;96.10;;;42.15;;
42668;SDS011;29384;42.028;21.388;2022-12-29T00:04:54;87.40;;;43.13;;
42668;SDS011;29384;42.028;21.388;2022-12-29T00:07:20;82.03;;;40.75;;
42668;SDS011;29384;42.028;21.388;2022-12-29T00:09:45;87.97;;;38.58;;
42668;SDS011;29384;42.028;21.388;2022-12-29T00:12:10;81.32;;;38.00;;
42668;SDS011;29384;42.028;21.388;2022-12-29T00:14:36;89.70;;;42.92;;
42668;SDS011;29384;42.028;21.388;2022-12-29T00:17:20;78.28;;;39.90;;
42668;SDS011;29384;42.028;21.388;2022-12-29T00:19:45;84.95;;;40.55;;
42668;SDS011;29384;42.028;21.388;2022-12-29T00:22:28;90.20;;;42.93;;
42668;SDS011;29384;42.028;21.388;2022-12-29T00:25:13;80.22;;;39.53;;
42668;SDS011;29384;42.028;21.388;2022-12-29T00:27:56;94.05;;;41.53;;
42668;SDS011;29384;42.028;21.388;2022-12-29T00:30:40;86.57;;;42.03;;
42668;SDS011;29384;42.028;21.388;2022-12-29T00:33:31;92.60;;;40.40;;
42668;SDS011;29384;42.028;21.388;2022-12-29T00:36:28;166.52;;;71.38;;
42668;SDS011;29384;42.028;21.388;2022-12-29T00:39:06;99.65;;;46.60;;
42668;SDS011;29384;42.028;21.388;2022-12-29T00:44:35;73.07;;;38.28;;
42668;SDS011;29384;42.028;21.388;2022-12-29T00:47:00;82.53;;;39.42;;
42668;SDS011;29384;42.028;21.388;2022-12-29T00:49:29;83.07;;;40.60;;
42668;SDS011;29384;42.028;21.388;2022-12-29T00:51:59;75.15;;;39.00;;
42668;SDS011;29384;42.028;21.388;2022-12-29T00:54:24;87.00;;;41.50;;
42668;SDS011;29384;42.028;21.388;2022-12-29T00:56:50;80.65;;;40.92;;
42668;SDS011;29384;42.028;21.388;2022-12-29T00:59:16;77.55;;;38.63;;
42668;SDS011;29384;42.028;21.388;2022-12-29T01:01:42;65.00;;;36.05;;
42668;SDS011;29384;42.028;21.388;2022-12-29T01:04:07;71.78;;;35.63;;
42668;SDS011;29384;42.028;21.388;2022-12-29T01:06:33;76.78;;;34.40;;
42668;SDS011;29384;42.028;21.388;2022-12-29T01:08:59;79.20;;;35.72;;
42668;SDS011;29384;42.028;21.388;2022-12-29T01:11:44;73.72;;;36.63;;
42668;SDS011;29384;42.028;21.388;2022-12-29T01:14:09;67.68;;;32.78;;
42668;SDS011;29384;42.028;21.388;2022-12-29T01:16:34;80.00;;;36.72;;
42668;SDS011;29384;42.028;21.388;2022-12-29T01:19:01;88.72;;;39.13;;
42668;SDS011;29384;42.028;21.388;2022-12-29T01:21:26;72.07;;;35.90;;
42668;SDS011;29384;42.028;21.388;2022-12-29T01:23:51;70.85;;;35.45;;
42668;SDS011;29384;42.028;21.388;2022-12-29T01:26:17;72.00;;;34.50;;
42668;SDS011;29384;42.028;21.388;2022-12-29T01:28:42;66.15;;;33.90;;
42668;SDS011;29384;42.028;21.388;2022-12-29T01:31:08;70.18;;;33.72;;
42668;SDS011;29384;42.028;21.388;2022-12-29T01:33:33;66.60;;;34.80;;
42668;SDS011;29384;42.028;21.388;2022-12-29T01:36:02;60.78;;;33.05;;
42668;SDS011;29384;42.028;21.388;2022-12-29T01:38:28;54.08;;;32.78;;
42668;SDS011;29384;42.028;21.388;2022-12-29T01:40:53;60.95;;;32.30;;
42668;SDS011;29384;42.028;21.388;2022-12-29T01:43:18;56.63;;;31.23;;
42668;SDS011;29384;42.028;21.388;2022-12-29T01:45:45;61.95;;;28.40;;
42668;SDS011;29384;42.028;21.388;2022-12-29T01:48:13;54.75;;;30.17;;
42668;SDS011;29384;42.028;21.388;2022-12-29T01:50:39;60.28;;;30.92;;
42668;SDS011;29384;42.028;21.388;2022-12-29T01:53:25;64.07;;;31.85;;
42668;SDS011;29384;42.028;21.388;2022-12-29T01:55:54;67.13;;;32.10;;
42668;SDS011;29384;42.028;21.388;2022-12-29T01:58:21;64.70;;;31.92;;
42668;SDS011;29384;42.028;21.388;2022-12-29T02:00:47;67.03;;;32.90;;
42668;SDS011;29384;42.028;21.388;2022-12-29T02:03:12;69.05;;;30.27;;
42668;SDS011;29384;42.028;21.388;2022-12-29T02:05:40;64.05;;;31.00;;
42668;SDS011;29384;42.028;21.388;2022-12-29T02:08:07;63.85;;;31.17;;
42668;SDS011;29384;42.028;21.388;2022-12-29T02:10:34;60.72;;;31.02;;
42668;SDS011;29384;42.028;21.388;2022-12-29T02:13:00;68.38;;;32.63;;
42668;SDS011;29384;42.028;21.388;2022-12-29T02:15:34;61.45;;;30.77;;
42668;SDS011;29384;42.028;21.388;2022-12-29T02:20:41;63.78;;;32.75;;
42668;SDS011;29384;42.028;21.388;2022-12-29T02:40:51;58.80;;;30.52;;
42668;SDS011;29384;42.028;21.388;2022-12-29T02:43:21;60.47;;;31.25;;
42668;SDS011;29384;42.028;21.388;2022-12-29T02:48:24;62.00;;;30.88;;
42668;SDS011;29384;42.028;21.388;2022-12-29T02:51:03;69.95;;;33.17;;
42668;SDS011;29384;42.028;21.388;2022-12-29T02:53:29;58.22;;;32.03;;
42668;SDS011;29384;42.028;21.388;2022-12-29T02:56:15;62.45;;;31.20;;
42668;SDS011;29384;42.028;21.388;2022-12-29T02:58:40;65.35;;;30.65;;
42668;SDS011;29384;42.028;21.388;2022-12-29T03:01:28;55.10;;;28.00;;
42668;SDS011;29384;42.028;21.388;2022-12-29T03:11:53;51.22;;;27.35;;
42668;SDS011;29384;42.028;21.388;2022-12-29T03:17:25;70.75;;;28.88;;
42668;SDS011;29384;42.028;21.388;2022-12-29T03:19:51;61.30;;;30.35;;
42668;SDS011;29384;42.028;21.388;2022-12-29T03:22:19;54.92;;;28.75;;
42668;SDS011;29384;42.028;21.388;2022-12-29T03:24:54;53.78;;;28.70;;
42668;SDS011;29384;42.028;21.388;2022-12-29T03:27:22;59.30;;;27.60;;
42668;SDS011;29384;42.028;21.388;2022-12-29T03:29:50;44.45;;;23.75;;
42668;SDS011;29384;42.028;21.388;2022-12-29T03:32:20;41.17;;;22.52;;
42668;SDS011;29384;42.028;21.388;2022-12-29T03:34:47;45.55;;;22.90;;
42668;SDS011;29384;42.028;21.388;2022-12-29T03:37:15;48.92;;;23.10;;
42668;SDS011;29384;42.028;21.388;2022-12-29T03:39:41;45.88;;;24.95;;
42668;SDS011;29384;42.028;21.388;2022-12-29T03:42:11;43.85;;;25.42;;
42668;SDS011;29384;42.028;21.388;2022-12-29T03:44:39;51.88;;;24.00;;
42668;SDS011;29384;42.028;21.388;2022-12-29T03:47:06;40.83;;;22.58;;
42668;SDS011;29384;42.028;21.388;2022-12-29T03:49:31;48.70;;;23.75;;
42668;SDS011;29384;42.028;21.388;2022-12-29T03:51:57;58.42;;;24.67;;
42668;SDS011;29384;42.028;21.388;2022-12-29T03:54:22;39.13;;;23.38;;
42668;SDS011;29384;42.028;21.388;2022-12-29T03:56:48;43.13;;;21.77;;
42668;SDS011;29384;42.028;21.388;2022-12-29T03:59:13;47.85;;;24.10;;
42668;SDS011;29384;42.028;21.388;2022-12-29T04:01:38;44.72;;;24.70;;
42668;SDS011;29384;42.028;21.388;2022-12-29T04:04:04;40.20;;;22.25;;
42668;SDS011;29384;42.028;21.388;2022-12-29T04:06:29;49.33;;;25.38;;
42668;SDS011;29384;42.028;21.388;2022-12-29T04:08:54;62.50;;;29.10;;
42668;SDS011;29384;42.028;21.388;2022-12-29T04:11:20;51.15;;;26.55;;
42668;SDS011;29384;42.028;21.388;2022-12-29T04:13:45;44.85;;;25.05;;
42668;SDS011;29384;42.028;21.388;2022-12-29T04:16:11;55.67;;;27.77;;
42668;SDS011;29384;42.028;21.388;2022-12-29T04:18:36;49.13;;;26.02;;
42668;SDS011;29384;42.028;21.388;2022-12-29T04:21:01;52.03;;;27.05;;
42668;SDS011;29384;42.028;21.388;2022-12-29T04:23:28;52.97;;;26.45;;
42668;SDS011;29384;42.028;21.388;2022-12-29T04:25:54;49.10;;;26.42;;
42668;SDS011;29384;42.028;21.388;2022-12-29T04:28:19;52.55;;;28.02;;
42668;SDS011;29384;42.028;21.388;2022-12-29T04:30:45;56.33;;;26.70;;
42668;SDS011;29384;42.028;21.388;2022-12-29T04:33:10;66.57;;;34.90;;
42668;SDS011;29384;42.028;21.388;2022-12-29T04:35:36;74.55;;;36.20;;
42668;SDS011;29384;42.028;21.388;2022-12-29T04:38:01;75.15;;;37.30;;
42668;SDS011;29384;42.028;21.388;2022-12-29T04:40:27;62.70;;;34.30;;
42668;SDS011;29384;42.028;21.388;2022-12-29T04:42:52;59.08;;;34.03;;
42668;SDS011;29384;42.028;21.388;2022-12-29T04:48:20;64.03;;;33.75;;
42668;SDS011;29384;42.028;21.388;2022-12-29T04:50:47;58.38;;;31.92;;
42668;SDS011;29384;42.028;21.388;2022-12-29T04:53:13;62.38;;;32.67;;
42668;SDS011;29384;42.028;21.388;2022-12-29T04:55:38;61.28;;;31.98;;
42668;SDS011;29384;42.028;21.388;2022-12-29T04:58:03;64.80;;;31.55;;
42668;SDS011;29384;42.028;21.388;2022-12-29T05:03:31;48.08;;;26.83;;
42668;SDS011;29384;42.028;21.388;2022-12-29T05:05:56;52.08;;;26.83;;
42668;SDS011;29384;42.028;21.388;2022-12-29T05:08:22;49.78;;;27.17;;
42668;SDS011;29384;42.028;21.388;2022-12-29T05:10:49;60.38;;;27.70;;
42668;SDS011;29384;42.028;21.388;2022-12-29T05:13:14;59.28;;;30.00;;
42668;SDS011;29384;42.028;21.388;2022-12-29T05:18:43;57.78;;;28.65;;
42668;SDS011;29384;42.028;21.388;2022-12-29T05:21:08;59.15;;;28.45;;
42668;SDS011;29384;42.028;21.388;2022-12-29T05:23:33;59.47;;;31.35;;
42668;SDS011;29384;42.028;21.388;2022-12-29T05:25:59;51.28;;;26.80;;
42668;SDS011;29384;42.028;21.388;2022-12-29T05:28:24;43.13;;;23.92;;
42668;SDS011;29384;42.028;21.388;2022-12-29T05:34:05;51.42;;;22.30;;
42668;SDS011;29384;42.028;21.388;2022-12-29T05:36:31;45.65;;;25.58;;
42668;SDS011;29384;42.028;21.388;2022-12-29T05:38:56;38.47;;;22.73;;
42668;SDS011;29384;42.028;21.388;2022-12-29T05:41:21;48.38;;;23.75;;
42668;SDS011;29384;42.028;21.388;2022-12-29T05:43:47;38.67;;;22.92;;
42668;SDS011;29384;42.028;21.388;2022-12-29T05:46:12;45.78;;;24.05;;
42668;SDS011;29384;42.028;21.388;2022-12-29T05:48:37;48.35;;;23.75;;
42668;SDS011;29384;42.028;21.388;2022-12-29T05:51:03;44.20;;;23.15;;
42668;SDS011;29384;42.028;21.388;2022-12-29T05:53:28;42.58;;;23.13;;
42668;SDS011;29384;42.028;21.388;2022-12-29T05:55:53;40.88;;;22.55;;
42668;SDS011;29384;42.028;21.388;2022-12-29T05:58:19;36.35;;;20.73;;
42668;SDS011;29384;42.028;21.388;2022-12-29T06:03:47;41.30;;;24.55;;
42668;SDS011;29384;42.028;21.388;2022-12-29T06:06:12;49.53;;;25.75;;
42668;SDS011;29384;42.028;21.388;2022-12-29T06:08:37;46.83;;;25.65;;
42668;SDS011;29384;42.028;21.388;2022-12-29T06:11:03;51.03;;;25.58;;
42668;SDS011;29384;42.028;21.388;2022-12-29T06:13:28;52.78;;;29.55;;
42668;SDS011;29384;42.028;21.388;2022-12-29T06:18:56;47.33;;;27.23;;
42668;SDS011;29384;42.028;21.388;2022-12-29T06:21:21;47.47;;;26.73;;
42668;SDS011;29384;42.028;21.388;2022-12-29T06:23:47;51.80;;;25.85;;
42668;SDS011;29384;42.028;21.388;2022-12-29T06:26:12;49.22;;;27.52;;
42668;SDS011;29384;42.028;21.388;2022-12-29T06:28:37;64.95;;;28.48;;
42668;SDS011;29384;42.028;21.388;2022-12-29T06:34:05;57.35;;;26.20;;
42668;SDS011;29384;42.028;21.388;2022-12-29T06:36:30;44.22;;;26.33;;
42668;SDS011;29384;42.028;21.388;2022-12-29T06:38:56;54.50;;;28.20;;
42668;SDS011;29384;42.028;21.388;2022-12-29T06:41:21;44.97;;;25.92;;
42668;SDS011;29384;42.028;21.388;2022-12-29T06:43:47;55.33;;;29.15;;
42668;SDS011;29384;42.028;21.388;2022-12-29T06:49:15;48.53;;;25.88;;
42668;SDS011;29384;42.028;21.388;2022-12-29T06:51:40;51.00;;;27.45;;
42668;SDS011;29384;42.028;21.388;2022-12-29T06:54:06;48.55;;;26.55;;
42668;SDS011;29384;42.028;21.388;2022-12-29T06:56:31;58.05;;;26.65;;
42668;SDS011;29384;42.028;21.388;2022-12-29T06:58:56;48.72;;;27.42;;
42668;SDS011;29384;42.028;21.388;2022-12-29T07:04:24;47.88;;;25.73;;
42668;SDS011;29384;42.028;21.388;2022-12-29T07:06:50;45.75;;;26.45;;
42668;SDS011;29384;42.028;21.388;2022-12-29T07:09:15;53.28;;;28.52;;
42668;SDS011;29384;42.028;21.388;2022-12-29T07:11:40;47.50;;;27.05;;
42668;SDS011;29384;42.028;21.388;2022-12-29T07:14:06;55.17;;;27.67;;
42668;SDS011;29384;42.028;21.388;2022-12-29T07:16:31;56.13;;;25.60;;
42668;SDS011;29384;42.028;21.388;2022-12-29T07:18:57;63.03;;;24.15;;
42668;SDS011;29384;42.028;21.388;2022-12-29T07:21:24;54.15;;;28.85;;
42668;SDS011;29384;42.028;21.388;2022-12-29T07:23:49;57.40;;;30.65;;
42668;SDS011;29384;42.028;21.388;2022-12-29T07:26:15;57.55;;;30.85;;
42668;SDS011;29384;42.028;21.388;2022-12-29T07:28:43;59.88;;;28.23;;
42668;SDS011;29384;42.028;21.388;2022-12-29T07:34:10;67.72;;;31.23;;
42668;SDS011;29384;42.028;21.388;2022-12-29T07:36:36;77.18;;;35.78;;
42668;SDS011;29384;42.028;21.388;2022-12-29T07:39:02;67.70;;;33.60;;
42668;SDS011;29384;42.028;21.388;2022-12-29T07:41:27;75.47;;;36.65;;
42668;SDS011;29384;42.028;21.388;2022-12-29T07:43:53;67.60;;;35.58;;
42668;SDS011;29384;42.028;21.388;2022-12-29T07:49:21;75.32;;;36.05;;
42668;SDS011;29384;42.028;21.388;2022-12-29T07:51:46;79.63;;;37.40;;
42668;SDS011;29384;42.028;21.388;2022-12-29T07:54:11;73.55;;;34.17;;
42668;SDS011;29384;42.028;21.388;2022-12-29T07:56:37;77.20;;;33.50;;
42668;SDS011;29384;42.028;21.388;2022-12-29T07:59:03;68.57;;;33.92;;
42668;SDS011;29384;42.028;21.388;2022-12-29T08:04:31;73.78;;;33.22;;
42668;SDS011;29384;42.028;21.388;2022-12-29T08:06:56;63.72;;;30.80;;
42668;SDS011;29384;42.028;21.388;2022-12-29T08:09:21;71.75;;;31.10;;
42668;SDS011;29384;42.028;21.388;2022-12-29T08:11:47;58.08;;;30.40;;
42668;SDS011;29384;42.028;21.388;2022-12-29T08:14:12;67.53;;;28.88;;
42668;SDS011;29384;42.028;21.388;2022-12-29T08:19:40;71.35;;;32.83;;
42668;SDS011;29384;42.028;21.388;2022-12-29T08:22:07;54.75;;;28.48;;
42668;SDS011;29384;42.028;21.388;2022-12-29T08:24:32;59.00;;;26.00;;
42668;SDS011;29384;42.028;21.388;2022-12-29T08:26:58;50.45;;;27.08;;
42668;SDS011;29384;42.028;21.388;2022-12-29T08:29:23;77.50;;;26.77;;
42668;SDS011;29384;42.028;21.388;2022-12-29T08:31:48;49.50;;;24.83;;
42668;SDS011;29384;42.028;21.388;2022-12-29T08:34:13;58.70;;;26.20;;
42668;SDS011;29384;42.028;21.388;2022-12-29T08:36:39;55.45;;;24.75;;
42668;SDS011;29384;42.028;21.388;2022-12-29T08:39:04;44.85;;;23.27;;
42668;SDS011;29384;42.028;21.388;2022-12-29T08:41:29;46.33;;;22.65;;
42668;SDS011;29384;42.028;21.388;2022-12-29T08:43:55;41.58;;;21.75;;
42668;SDS011;29384;42.028;21.388;2022-12-29T08:49:23;46.90;;;23.23;;
42668;SDS011;29384;42.028;21.388;2022-12-29T08:51:48;39.15;;;21.17;;
42668;SDS011;29384;42.028;21.388;2022-12-29T08:54:13;43.92;;;24.73;;
42668;SDS011;29384;42.028;21.388;2022-12-29T08:56:38;40.45;;;22.60;;
42668;SDS011;29384;42.028;21.388;2022-12-29T08:59:04;49.35;;;24.35;;
42668;SDS011;29384;42.028;21.388;2022-12-29T09:04:32;82.97;;;28.42;;
42668;SDS011;29384;42.028;21.388;2022-12-29T09:06:57;53.55;;;27.88;;
42668;SDS011;29384;42.028;21.388;2022-12-29T09:09:22;62.38;;;25.88;;
42668;SDS011;29384;42.028;21.388;2022-12-29T09:11:48;56.05;;;27.98;;
42668;SDS011;29384;42.028;21.388;2022-12-29T09:14:13;47.10;;;25.80;;
42668;SDS011;29384;42.028;21.388;2022-12-29T09:19:41;65.20;;;29.77;;
42668;SDS011;29384;42.028;21.388;2022-12-29T09:22:06;58.58;;;28.70;;
42668;SDS011;29384;42.028;21.388;2022-12-29T09:24:31;53.58;;;28.50;;
42668;SDS011;29384;42.028;21.388;2022-12-29T09:26:57;49.40;;;25.95;;
42668;SDS011;29384;42.028;21.388;2022-12-29T09:29:22;53.88;;;26.00;;
42668;SDS011;29384;42.028;21.388;2022-12-29T09:34:50;52.63;;;23.52;;
42668;SDS011;29384;42.028;21.388;2022-12-29T09:37:15;52.03;;;25.15;;
42668;SDS011;29384;42.028;21.388;2022-12-29T09:39:41;47.00;;;23.25;;
42668;SDS011;29384;42.028;21.388;2022-12-29T09:42:25;48.08;;;24.77;;
42668;SDS011;29384;42.028;21.388;2022-12-29T09:47:36;55.33;;;26.05;;
42668;SDS011;29384;42.028;21.388;2022-12-29T09:50:03;44.20;;;23.55;;
42668;SDS011;29384;42.028;21.388;2022-12-29T09:52:37;45.75;;;25.50;;
42668;SDS011;29384;42.028;21.388;2022-12-29T09:55:15;50.58;;;24.88;;
42668;SDS011;29384;42.028;21.388;2022-12-29T09:57:43;54.10;;;24.98;;
42668;SDS011;29384;42.028;21.388;2022-12-29T10:05:26;52.08;;;23.45;;
42668;SDS011;29384;42.028;21.388;2022-12-29T10:08:00;40.90;;;22.50;;
42668;SDS011;29384;42.028;21.388;2022-12-29T10:10:37;47.47;;;21.52;;
42668;SDS011;29384;42.028;21.388;2022-12-29T10:15:44;44.47;;;23.40;;
42668;SDS011;29384;42.028;21.388;2022-12-29T10:25:56;73.53;;;30.95;;
42668;SDS011;29384;42.028;21.388;2022-12-29T10:28:22;81.07;;;33.75;;
42668;SDS011;29384;42.028;21.388;2022-12-29T10:30:48;99.40;;;36.03;;
42668;SDS011;29384;42.028;21.388;2022-12-29T10:33:15;84.38;;;37.00;;
42668;SDS011;29384;42.028;21.388;2022-12-29T10:35:43;91.45;;;37.17;;
42668;SDS011;29384;42.028;21.388;2022-12-29T10:41:11;79.97;;;35.47;;
42668;SDS011;29384;42.028;21.388;2022-12-29T10:43:54;85.20;;;33.83;;
42668;SDS011;29384;42.028;21.388;2022-12-29T10:46:21;83.30;;;34.75;;
42668;SDS011;29384;42.028;21.388;2022-12-29T10:48:47;94.25;;;33.88;;
42668;SDS011;29384;42.028;21.388;2022-12-29T10:54:14;120.25;;;32.10;;
42668;SDS011;29384;42.028;21.388;2022-12-29T10:56:46;80.57;;;30.45;;
42668;SDS011;29384;42.028;21.388;2022-12-29T10:59:16;83.50;;;31.00;;
42668;SDS011;29384;42.028;21.388;2022-12-29T11:01:51;76.50;;;28.38;;
42668;SDS011;29384;42.028;21.388;2022-12-29T11:07:02;76.22;;;27.40;;
42668;SDS011;29384;42.028;21.388;2022-12-29T11:09:28;81.18;;;29.65;;
42668;SDS011;29384;42.028;21.388;2022-12-29T11:11:55;70.90;;;25.40;;
42668;SDS011;29384;42.028;21.388;2022-12-29T11:14:30;65.55;;;27.67;;
42668;SDS011;29384;42.028;21.388;2022-12-29T11:17:02;72.10;;;27.50;;
42668;SDS011;29384;42.028;21.388;2022-12-29T11:19:29;59.90;;;24.55;;
42668;SDS011;29384;42.028;21.388;2022-12-29T11:21:56;67.65;;;29.13;;
42668;SDS011;29384;42.028;21.388;2022-12-29T11:24:36;69.93;;;26.95;;
42668;SDS011;29384;42.028;21.388;2022-12-29T11:27:10;58.03;;;22.67;;
42668;SDS011;29384;42.028;21.388;2022-12-29T11:29:39;75.82;;;23.58;;
42668;SDS011;29384;42.028;21.388;2022-12-29T11:32:39;56.35;;;22.55;;
42668;SDS011;29384;42.028;21.388;2022-12-29T11:34:58;54.03;;;23.17;;
42668;SDS011;29384;42.028;21.388;2022-12-29T11:39:56;63.08;;;27.20;;
42668;SDS011;29384;42.028;21.388;2022-12-29T11:42:23;71.80;;;28.05;;
42668;SDS011;29384;42.028;21.388;2022-12-29T11:44:53;58.92;;;22.35;;
42668;SDS011;29384;42.028;21.388;2022-12-29T11:47:23;60.70;;;23.25;;
42668;SDS011;29384;42.028;21.388;2022-12-29T11:49:51;51.28;;;22.67;;
42668;SDS011;29384;42.028;21.388;2022-12-29T11:52:20;65.88;;;21.60;;
42668;SDS011;29384;42.028;21.388;2022-12-29T11:54:46;47.35;;;20.88;;
42668;SDS011;29384;42.028;21.388;2022-12-29T11:57:13;47.08;;;22.58;;
42668;SDS011;29384;42.028;21.388;2022-12-29T11:59:43;63.55;;;23.85;;
42668;SDS011;29384;42.028;21.388;2022-12-29T12:07:42;60.78;;;22.77;;
42668;SDS011;29384;42.028;21.388;2022-12-29T12:10:13;50.35;;;24.20;;
42668;SDS011;29384;42.028;21.388;2022-12-29T12:28:42;35.55;;;16.95;;
42668;SDS011;29384;42.028;21.388;2022-12-29T12:34:24;39.90;;;17.83;;
42668;SDS011;29384;42.028;21.388;2022-12-29T12:58:11;24.83;;;13.45;;
42668;SDS011;29384;42.028;21.388;2022-12-29T13:00:52;26.67;;;12.27;;
42668;SDS011;29384;42.028;21.388;2022-12-29T13:12:01;14.73;;;9.30;;
42668;SDS011;29384;42.028;21.388;2022-12-29T13:20:02;19.27;;;11.48;;
42668;SDS011;29384;42.028;21.388;2022-12-29T13:30:00;20.40;;;10.95;;
42668;SDS011;29384;42.028;21.388;2022-12-29T13:38:03;17.70;;;10.00;;
42668;SDS011;29384;42.028;21.388;2022-12-29T13:40:32;15.73;;;9.13;;
42668;SDS011;29384;42.028;21.388;2022-12-29T13:42:59;14.60;;;9.57;;
42668;SDS011;29384;42.028;21.388;2022-12-29T13:45:26;12.43;;;8.70;;
42668;SDS011;29384;42.028;21.388;2022-12-29T13:50:57;12.60;;;8.32;;
42668;SDS011;29384;42.028;21.388;2022-12-29T13:56:05;10.70;;;8.20;;
42668;SDS011;29384;42.028;21.388;2022-12-29T13:58:44;11.82;;;7.82;;
42668;SDS011;29384;42.028;21.388;2022-12-29T14:03:49;21.35;;;8.55;;
42668;SDS011;29384;42.028;21.388;2022-12-29T14:08:48;12.90;;;7.90;;
42668;SDS011;29384;42.028;21.388;2022-12-29T14:11:16;11.43;;;8.32;;
42668;SDS011;29384;42.028;21.388;2022-12-29T14:13:43;13.55;;;7.38;;
42668;SDS011;29384;42.028;21.388;2022-12-29T14:16:26;10.68;;;7.30;;
42668;SDS011;29384;42.028;21.388;2022-12-29T14:18:52;12.38;;;7.13;;
42668;SDS011;29384;42.028;21.388;2022-12-29T14:21:22;10.32;;;7.10;;
42668;SDS011;29384;42.028;21.388;2022-12-29T14:23:52;14.15;;;8.07;;
42668;SDS011;29384;42.028;21.388;2022-12-29T14:28:53;13.25;;;8.30;;
42668;SDS011;29384;42.028;21.388;2022-12-29T14:39:00;11.30;;;7.10;;
42668;SDS011;29384;42.028;21.388;2022-12-29T14:41:29;12.43;;;8.15;;
42668;SDS011;29384;42.028;21.388;2022-12-29T14:43:58;12.55;;;7.43;;
42668;SDS011;29384;42.028;21.388;2022-12-29T14:46:24;10.15;;;7.93;;
42668;SDS011;29384;42.028;21.388;2022-12-29T14:48:54;11.48;;;9.02;;
42668;SDS011;29384;42.028;21.388;2022-12-29T14:51:26;17.98;;;9.38;;
42668;SDS011;29384;42.028;21.388;2022-12-29T14:53:53;18.08;;;8.88;;
42668;SDS011;29384;42.028;21.388;2022-12-29T14:56:19;28.40;;;11.55;;
42668;SDS011;29384;42.028;21.388;2022-12-29T14:58:55;17.40;;;10.18;;
42668;SDS011;29384;42.028;21.388;2022-12-29T15:01:33;21.10;;;10.55;;
42668;SDS011;29384;42.028;21.388;2022-12-29T15:04:20;14.52;;;9.40;;
42668;SDS011;29384;42.028;21.388;2022-12-29T15:06:46;13.32;;;9.80;;
42668;SDS011;29384;42.028;21.388;2022-12-29T15:11:57;33.42;;;11.65;;
42668;SDS011;29384;42.028;21.388;2022-12-29T15:14:36;36.60;;;11.13;;
42668;SDS011;29384;42.028;21.388;2022-12-29T15:17:10;21.88;;;10.63;;
42668;SDS011;29384;42.028;21.388;2022-12-29T15:19:36;30.00;;;12.48;;
42668;SDS011;29384;42.028;21.388;2022-12-29T15:22:02;29.10;;;13.85;;
42668;SDS011;29384;42.028;21.388;2022-12-29T15:24:27;23.27;;;10.10;;
42668;SDS011;29384;42.028;21.388;2022-12-29T15:26:53;27.10;;;12.40;;
42668;SDS011;29384;42.028;21.388;2022-12-29T15:31:58;46.85;;;15.65;;
42668;SDS011;29384;42.028;21.388;2022-12-29T15:34:24;23.95;;;12.07;;
42668;SDS011;29384;42.028;21.388;2022-12-29T15:36:50;39.75;;;12.63;;
42668;SDS011;29384;42.028;21.388;2022-12-29T15:39:31;34.05;;;14.15;;
42668;SDS011;29384;42.028;21.388;2022-12-29T15:41:58;30.15;;;14.32;;
42668;SDS011;29384;42.028;21.388;2022-12-29T15:44:26;36.55;;;15.52;;
42668;SDS011;29384;42.028;21.388;2022-12-29T15:46:53;81.05;;;17.10;;
42668;SDS011;29384;42.028;21.388;2022-12-29T15:49:19;43.67;;;16.13;;
42668;SDS011;29384;42.028;21.388;2022-12-29T15:51:45;48.08;;;16.25;;
42668;SDS011;29384;42.028;21.388;2022-12-29T15:54:17;43.17;;;17.58;;
42668;SDS011;29384;42.028;21.388;2022-12-29T15:56:43;47.83;;;16.95;;
42668;SDS011;29384;42.028;21.388;2022-12-29T15:59:28;46.95;;;18.50;;
42668;SDS011;29384;42.028;21.388;2022-12-29T16:01:57;46.80;;;17.58;;
42668;SDS011;29384;42.028;21.388;2022-12-29T16:04:24;62.25;;;19.63;;
42668;SDS011;29384;42.028;21.388;2022-12-29T16:09:32;51.55;;;22.13;;
42668;SDS011;29384;42.028;21.388;2022-12-29T16:11:58;62.13;;;25.80;;
42668;SDS011;29384;42.028;21.388;2022-12-29T16:14:28;45.45;;;24.00;;
42668;SDS011;29384;42.028;21.388;2022-12-29T16:16:56;57.75;;;28.10;;
42668;SDS011;29384;42.028;21.388;2022-12-29T16:19:24;73.03;;;33.30;;
42668;SDS011;29384;42.028;21.388;2022-12-29T16:21:52;62.38;;;30.42;;
42668;SDS011;29384;42.028;21.388;2022-12-29T16:24:19;58.72;;;28.88;;
42668;SDS011;29384;42.028;21.388;2022-12-29T16:29:23;55.53;;;26.88;;
42668;SDS011;29384;42.028;21.388;2022-12-29T16:34:24;60.50;;;29.80;;
42668;SDS011;29384;42.028;21.388;2022-12-29T16:36:56;57.40;;;30.92;;
42668;SDS011;29384;42.028;21.388;2022-12-29T16:39:32;60.70;;;31.80;;
42668;SDS011;29384;42.028;21.388;2022-12-29T16:41:58;62.63;;;30.17;;
42668;SDS011;29384;42.028;21.388;2022-12-29T16:44:25;51.97;;;29.63;;
42668;SDS011;29384;42.028;21.388;2022-12-29T16:49:39;55.10;;;29.08;;
42668;SDS011;29384;42.028;21.388;2022-12-29T16:52:17;54.75;;;28.70;;
42668;SDS011;29384;42.028;21.388;2022-12-29T16:54:47;61.67;;;29.42;;
42668;SDS011;29384;42.028;21.388;2022-12-29T16:57:13;56.15;;;27.75;;
42668;SDS011;29384;42.028;21.388;2022-12-29T16:59:39;53.72;;;28.10;;
42668;SDS011;29384;42.028;21.388;2022-12-29T17:02:12;71.43;;;28.85;;
42668;SDS011;29384;42.028;21.388;2022-12-29T17:04:39;51.10;;;28.95;;
42668;SDS011;29384;42.028;21.388;2022-12-29T17:07:08;55.17;;;25.65;;
42668;SDS011;29384;42.028;21.388;2022-12-29T17:09:34;47.20;;;25.00;;
42668;SDS011;29384;42.028;21.388;2022-12-29T17:11:59;48.35;;;24.08;;
42668;SDS011;29384;42.028;21.388;2022-12-29T17:16:50;37.58;;;16.08;;
42668;SDS011;29384;42.028;21.388;2022-12-29T17:19:17;41.53;;;19.00;;
42668;SDS011;29384;42.028;21.388;2022-12-29T17:21:43;117.72;;;49.45;;
42668;SDS011;29384;42.028;21.388;2022-12-29T17:24:13;66.15;;;26.13;;
42668;SDS011;29384;42.028;21.388;2022-12-29T17:26:40;22.27;;;14.95;;
42668;SDS011;29384;42.028;21.388;2022-12-29T17:29:06;31.90;;;17.00;;
42668;SDS011;29384;42.028;21.388;2022-12-29T17:31:31;44.63;;;16.67;;
42668;SDS011;29384;42.028;21.388;2022-12-29T17:36:59;29.67;;;14.35;;
42668;SDS011;29384;42.028;21.388;2022-12-29T17:39:24;29.02;;;14.00;;
42668;SDS011;29384;42.028;21.388;2022-12-29T17:41:50;28.88;;;13.15;;
42668;SDS011;29384;42.028;21.388;2022-12-29T17:44:16;25.00;;;14.15;;
42668;SDS011;29384;42.028;21.388;2022-12-29T17:46:42;38.70;;;17.00;;
42668;SDS011;29384;42.028;21.388;2022-12-29T17:52:14;31.65;;;16.23;;
42668;SDS011;29384;42.028;21.388;2022-12-29T17:54:41;25.80;;;14.55;;
42668;SDS011;29384;42.028;21.388;2022-12-29T17:57:10;28.52;;;16.35;;
42668;SDS011;29384;42.028;21.388;2022-12-29T17:59:36;34.85;;;19.42;;
42668;SDS011;29384;42.028;21.388;2022-12-29T18:02:01;37.03;;;19.85;;
42668;SDS011;29384;42.028;21.388;2022-12-29T18:04:26;42.47;;;21.35;;
42668;SDS011;29384;42.028;21.388;2022-12-29T18:06:52;33.40;;;19.92;;
42668;SDS011;29384;42.028;21.388;2022-12-29T18:09:17;43.78;;;20.67;;
42668;SDS011;29384;42.028;21.388;2022-12-29T18:11:43;44.78;;;20.92;;